createdAt,value
2023-01-10T00:02:02.997Z,6.10
2023-01-10T00:04:31.173Z,6.10
2023-01-10T00:06:59.335Z,6.10
2023-01-10T00:09:27.434Z,6.10
2023-01-10T00:12:14.431Z,6.10
2023-01-10T00:14:42.498Z,6.10
2023-01-10T00:17:10.618Z,6.10
2023-01-10T00:19:38.760Z,6.10
2023-01-10T00:22:14.575Z,6.20
2023-01-10T00:24:44.063Z,6.20
2023-01-10T00:27:17.757Z,6.20
2023-01-10T00:29:46.854Z,6.20
2023-01-10T00:32:14.991Z,6.10
2023-01-10T00:34:43.093Z,6.20
2023-01-10T00:37:11.287Z,6.10
2023-01-10T00:39:39.455Z,6.10
2023-01-10T00:42:25.384Z,6.10
2023-01-10T00:44:54.849Z,6.10
2023-01-10T00:47:23.111Z,6.10
2023-01-10T00:49:51.188Z,6.10
2023-01-10T00:52:19.346Z,6.10
2023-01-10T00:54:47.443Z,6.10
2023-01-10T00:57:15.668Z,6.10
2023-01-10T00:59:43.769Z,6.00
2023-01-10T01:02:13.491Z,6.10
2023-01-10T01:04:41.666Z,6.00
2023-01-10T01:07:09.813Z,6.10
2023-01-10T01:09:58.276Z,6.10
2023-01-10T01:12:26.494Z,6.10
2023-01-10T01:14:54.641Z,6.00
2023-01-10T01:17:24.104Z,6.00
2023-01-10T01:19:52.173Z,6.00
2023-01-10T01:22:21.050Z,6.00
2023-01-10T01:24:49.259Z,6.00
2023-01-10T01:27:17.505Z,5.90
2023-01-10T01:29:45.608Z,5.90
2023-01-10T01:32:13.737Z,5.80
2023-01-10T01:34:43.261Z,5.80
2023-01-10T01:37:11.443Z,5.70
2023-01-10T01:39:39.603Z,5.70
2023-01-10T01:42:08.009Z,5.60
2023-01-10T01:44:40.421Z,5.60
2023-01-10T01:47:18.568Z,5.60
2023-01-10T01:49:48.250Z,5.60
2023-01-10T01:52:27.664Z,5.60
2023-01-10T01:55:00.147Z,5.70
2023-01-10T01:57:31.838Z,5.70
2023-01-10T02:00:02.934Z,5.70
2023-01-10T02:03:01.203Z,5.70
2023-01-10T02:05:35.058Z,5.70
2023-01-10T02:08:03.798Z,5.70
2023-01-10T02:10:41.827Z,5.70
2023-01-10T02:13:14.970Z,5.70
2023-01-10T02:15:43.260Z,5.70
2023-01-10T02:18:12.096Z,5.80
2023-01-10T02:21:04.685Z,5.80
2023-01-10T02:24:19.120Z,5.80
2023-01-10T02:27:19.795Z,5.90
2023-01-10T02:30:42.239Z,5.90
2023-01-10T02:33:22.742Z,5.80
2023-01-10T02:36:17.310Z,5.90
2023-01-10T02:38:59.710Z,5.90
2023-01-10T02:41:39.347Z,5.90
2023-01-10T02:44:19.802Z,5.90
2023-01-10T02:46:50.217Z,6.00
2023-01-10T02:49:20.328Z,6.00
2023-01-10T02:51:48.475Z,6.00
2023-01-10T02:54:21.627Z,6.00
2023-01-10T02:57:46.699Z,6.00
2023-01-10T03:00:39.687Z,6.10
2023-01-10T03:03:27.374Z,6.10
2023-01-10T03:06:17.700Z,6.10
2023-01-10T03:08:56.606Z,6.20
2023-01-10T03:11:42.212Z,6.20
2023-01-10T03:14:19.630Z,6.20
2023-01-10T03:16:55.830Z,6.20
2023-01-10T03:19:30.035Z,6.20
2023-01-10T03:22:03.616Z,6.30
2023-01-10T03:24:40.563Z,6.30
2023-01-10T03:27:15.741Z,6.30
2023-01-10T03:29:52.561Z,6.30
2023-01-10T03:32:26.918Z,6.40
2023-01-10T03:34:56.160Z,6.40
2023-01-10T03:37:37.529Z,6.40
2023-01-10T03:40:18.783Z,6.40
2023-01-10T03:43:15.479Z,6.40
2023-01-10T03:45:50.532Z,6.50
2023-01-10T03:48:22.865Z,6.50
2023-01-10T03:50:52.941Z,6.50
2023-01-10T03:53:22.570Z,6.50
2023-01-10T03:55:50.753Z,6.50
2023-01-10T03:58:21.790Z,6.50
2023-01-10T04:00:50.583Z,6.50
2023-01-10T04:03:18.733Z,6.60
2023-01-10T04:05:46.930Z,6.60
2023-01-10T04:08:15.227Z,6.60
2023-01-10T04:10:47.624Z,6.60
2023-01-10T04:13:15.900Z,6.60
2023-01-10T04:15:44.134Z,6.60
2023-01-10T04:18:13.004Z,6.60
2023-01-10T04:20:41.068Z,6.60
2023-01-10T04:23:09.189Z,6.60
2023-01-10T04:25:37.343Z,6.60
2023-01-10T04:28:07.197Z,6.50
2023-01-10T04:30:35.373Z,6.60
2023-01-10T04:33:03.485Z,6.60
2023-01-10T04:35:31.617Z,6.50
2023-01-10T04:37:59.743Z,6.60
2023-01-10T04:40:27.863Z,6.60
2023-01-10T04:42:56.024Z,6.60
2023-01-10T04:45:25.532Z,6.50
2023-01-10T04:47:56.171Z,6.50
2023-01-10T04:50:24.888Z,6.50
2023-01-10T04:52:53.045Z,6.50
2023-01-10T04:55:21.561Z,6.60
2023-01-10T04:57:49.705Z,6.60
2023-01-10T05:00:18.895Z,6.60
2023-01-10T05:02:48.438Z,6.60
2023-01-10T05:05:16.916Z,6.50
2023-01-10T05:07:47.998Z,6.50
2023-01-10T05:10:16.344Z,6.50
2023-01-10T05:12:44.706Z,6.50
2023-01-10T05:15:13.122Z,6.40
2023-01-10T05:17:41.533Z,6.50
2023-01-10T05:20:13.415Z,6.40
2023-01-10T05:22:41.878Z,6.40
2023-01-10T05:25:10.923Z,6.40
2023-01-10T05:27:42.978Z,6.40
2023-01-10T05:30:13.625Z,6.40
2023-01-10T05:32:41.953Z,6.40
2023-01-10T05:35:12.062Z,6.40
2023-01-10T05:37:40.936Z,6.40
2023-01-10T05:40:12.295Z,6.40
2023-01-10T05:42:40.748Z,6.40
2023-01-10T05:45:10.577Z,6.40
2023-01-10T05:47:38.820Z,6.30
2023-01-10T05:50:08.259Z,6.30
2023-01-10T05:52:37.743Z,6.30
2023-01-10T05:55:06.781Z,6.30
2023-01-10T05:57:35.011Z,6.30
2023-01-10T06:00:05.133Z,6.30
2023-01-10T06:02:39.903Z,6.30
2023-01-10T06:05:09.035Z,6.30
2023-01-10T06:07:38.633Z,6.30
2023-01-10T06:10:07.877Z,6.40
2023-01-10T06:12:36.027Z,6.30
2023-01-10T06:15:04.821Z,6.30
2023-01-10T06:17:33.012Z,6.40
2023-01-10T06:20:01.158Z,6.40
2023-01-10T06:22:29.414Z,6.40
2023-01-10T06:25:00.466Z,6.40
2023-01-10T06:27:29.739Z,6.40
2023-01-10T06:29:59.543Z,6.40
2023-01-10T06:32:27.760Z,6.40
2023-01-10T06:34:55.894Z,6.40
2023-01-10T06:37:24.045Z,6.40
2023-01-10T06:39:52.161Z,6.40
2023-01-10T06:42:21.615Z,6.40
2023-01-10T06:44:49.694Z,6.40
2023-01-10T06:47:17.873Z,6.40
2023-01-10T06:49:45.965Z,6.40
2023-01-10T06:52:14.089Z,6.40
2023-01-10T06:54:42.301Z,6.40
2023-01-10T06:57:10.519Z,6.40
2023-01-10T06:59:39.951Z,6.40
2023-01-10T07:02:08.392Z,6.40
2023-01-10T07:04:36.665Z,6.40
2023-01-10T07:07:04.818Z,6.40
2023-01-10T07:09:33.405Z,6.40
2023-01-10T07:12:01.705Z,6.40
2023-01-10T07:14:29.914Z,6.40
2023-01-10T07:16:59.353Z,6.40
2023-01-10T07:19:27.437Z,6.40
2023-01-10T07:21:55.684Z,6.40
2023-01-10T07:24:23.880Z,6.40
2023-01-10T07:26:52.022Z,6.40
2023-01-10T07:29:20.185Z,6.40
2023-01-10T07:31:48.325Z,6.40
2023-01-10T07:34:18.061Z,6.30
2023-01-10T07:36:46.193Z,6.40
2023-01-10T07:39:14.354Z,6.40
2023-01-10T07:41:42.425Z,6.40
2023-01-10T07:44:10.987Z,6.40
2023-01-10T07:46:39.131Z,6.50
2023-01-10T07:49:07.297Z,6.50
2023-01-10T07:51:36.917Z,6.50
2023-01-10T07:54:05.838Z,6.50
2023-01-10T07:56:33.992Z,6.50
2023-01-10T07:59:02.199Z,6.60
2023-01-10T08:01:30.557Z,6.60
2023-01-10T08:03:59.573Z,6.60
2023-01-10T08:06:27.650Z,6.50
2023-01-10T08:08:57.172Z,6.50
2023-01-10T08:11:25.340Z,6.60
2023-01-10T08:13:53.638Z,6.60
2023-01-10T08:16:21.885Z,6.60
2023-01-10T08:18:50.042Z,6.60
2023-01-10T08:21:18.168Z,6.60
2023-01-10T08:23:46.281Z,6.60
2023-01-10T08:26:15.792Z,6.60
2023-01-10T08:28:43.901Z,6.60
2023-01-10T08:31:12.332Z,6.60
2023-01-10T08:33:41.856Z,6.60
2023-01-10T08:36:17.781Z,6.60
2023-01-10T08:38:46.338Z,6.60
2023-01-10T08:41:16.018Z,6.60
2023-01-10T08:43:44.150Z,6.60
2023-01-10T08:46:12.351Z,6.60
2023-01-10T08:48:40.581Z,6.70
2023-01-10T08:51:10.682Z,6.60
2023-01-10T08:53:41.028Z,6.60
2023-01-10T08:56:10.228Z,6.70
2023-01-10T08:58:39.933Z,6.70
2023-01-10T09:01:11.785Z,6.70
2023-01-10T09:03:40.481Z,6.70
2023-01-10T09:06:09.417Z,6.70
2023-01-10T09:08:38.365Z,6.80
2023-01-10T09:11:07.822Z,6.80
2023-01-10T09:13:36.026Z,6.80
2023-01-10T09:16:06.279Z,6.80
2023-01-10T09:18:34.869Z,6.80
2023-01-10T09:21:03.848Z,6.80
2023-01-10T09:23:31.959Z,6.80
2023-01-10T09:26:02.841Z,6.90
2023-01-10T09:28:30.991Z,6.90
2023-01-10T09:31:00.951Z,6.90
2023-01-10T09:33:45.314Z,6.90
2023-01-10T09:36:15.473Z,6.90
2023-01-10T09:38:43.828Z,6.90
2023-01-10T09:41:48.911Z,6.90
2023-01-10T09:44:26.321Z,6.90
2023-01-10T09:47:08.481Z,6.90
2023-01-10T09:49:57.998Z,6.90
2023-01-10T09:52:34.083Z,7.00
2023-01-10T09:55:19.240Z,7.00
2023-01-10T09:57:48.488Z,7.10
2023-01-10T10:00:22.730Z,7.10
2023-01-10T10:02:53.644Z,7.00
2023-01-10T10:05:26.630Z,7.10
2023-01-10T10:07:58.403Z,7.10
2023-01-10T10:10:32.538Z,7.20
2023-01-10T10:13:23.212Z,7.20
2023-01-10T10:16:04.487Z,7.20
2023-01-10T10:18:46.699Z,7.30
2023-01-10T10:21:29.548Z,7.40
2023-01-10T10:24:31.792Z,7.30
2023-01-10T10:27:08.516Z,7.20
2023-01-10T10:30:26.416Z,7.20
2023-01-10T10:33:26.041Z,7.20
2023-01-10T10:36:03.486Z,7.20
2023-01-10T10:38:39.504Z,7.10
2023-01-10T10:41:27.217Z,7.10
2023-01-10T10:44:00.749Z,7.10
2023-01-10T10:46:28.889Z,7.10
2023-01-10T10:49:01.737Z,7.10
2023-01-10T10:51:43.360Z,7.10
2023-01-10T10:54:15.012Z,7.10
2023-01-10T10:56:44.757Z,7.10
2023-01-10T10:59:17.942Z,7.10
2023-01-10T11:01:48.850Z,7.00
2023-01-10T11:04:23.114Z,7.10
2023-01-10T11:06:52.811Z,7.20
2023-01-10T11:09:29.395Z,7.10
2023-01-10T11:11:59.269Z,7.20
2023-01-10T11:14:47.063Z,7.10
2023-01-10T11:17:26.376Z,7.20
2023-01-10T11:19:58.759Z,7.20
2023-01-10T11:22:29.287Z,7.30
2023-01-10T11:25:02.194Z,7.20
2023-01-10T11:27:33.714Z,7.30
2023-01-10T11:30:08.537Z,7.40
2023-01-10T11:32:49.192Z,7.40
2023-01-10T11:35:24.683Z,7.50
2023-01-10T11:38:02.264Z,7.40
2023-01-10T11:40:33.741Z,7.50
2023-01-10T11:43:26.387Z,7.60
2023-01-10T11:45:58.037Z,7.50
2023-01-10T11:48:56.291Z,7.50
2023-01-10T11:51:26.484Z,7.60
2023-01-10T11:54:00.763Z,7.50
2023-01-10T11:56:35.087Z,7.50
2023-01-10T11:59:12.517Z,7.50
2023-01-10T12:01:44.713Z,7.50
2023-01-10T12:04:16.956Z,7.40
2023-01-10T12:06:48.081Z,7.40
2023-01-10T12:09:42.372Z,7.40
2023-01-10T12:12:25.461Z,7.40
2023-01-10T12:14:56.043Z,7.30
2023-01-10T12:17:28.480Z,7.30
2023-01-10T12:20:01.373Z,7.30
2023-01-10T12:22:34.742Z,7.20
2023-01-10T12:25:16.262Z,7.20
2023-01-10T12:27:50.062Z,7.20
2023-01-10T12:30:29.837Z,7.20
2023-01-10T12:33:03.389Z,7.20
2023-01-10T12:35:42.000Z,7.20
2023-01-10T12:38:40.444Z,7.20
2023-01-10T12:41:33.793Z,7.20
2023-01-10T12:44:14.756Z,7.20
2023-01-10T12:47:09.180Z,7.20
2023-01-10T12:49:46.792Z,7.30
2023-01-10T12:52:23.435Z,7.30
2023-01-10T12:54:51.950Z,7.40
2023-01-10T12:57:30.536Z,7.40
2023-01-10T13:00:04.735Z,7.50
2023-01-10T13:02:43.973Z,7.50
2023-01-10T13:05:21.052Z,7.50
2023-01-10T13:07:53.415Z,7.50
2023-01-10T13:10:27.284Z,7.60
2023-01-10T13:13:02.197Z,7.70
2023-01-10T13:15:39.323Z,7.70
2023-01-10T13:18:24.012Z,7.80
2023-01-10T13:21:08.683Z,7.80
2023-01-10T13:23:46.669Z,7.80
2023-01-10T13:26:14.939Z,7.70
2023-01-10T13:28:57.066Z,7.70
2023-01-10T13:31:31.947Z,7.80
2023-01-10T13:34:06.059Z,7.70
2023-01-10T13:36:40.863Z,7.80
2023-01-10T13:39:24.482Z,7.80
2023-01-10T13:42:49.176Z,7.70
2023-01-10T13:45:27.403Z,7.60
2023-01-10T13:48:03.737Z,7.60
2023-01-10T13:51:14.302Z,7.60
2023-01-10T13:54:25.140Z,7.50
2023-01-10T13:56:53.352Z,7.50
2023-01-10T14:00:19.897Z,7.50
2023-01-10T14:02:48.109Z,7.50
2023-01-10T14:05:22.017Z,7.50
2023-01-10T14:07:53.783Z,7.50
2023-01-10T14:10:26.733Z,7.50
2023-01-10T14:12:59.516Z,7.50
2023-01-10T14:15:32.143Z,7.60
2023-01-10T14:18:04.209Z,7.50
2023-01-10T14:20:36.748Z,7.60
2023-01-10T14:23:09.393Z,7.70
2023-01-10T14:25:39.574Z,7.80
2023-01-10T14:28:22.816Z,8.00
2023-01-10T14:31:10.427Z,8.10
2023-01-10T14:33:41.780Z,8.00
2023-01-10T14:36:21.459Z,7.80
2023-01-10T14:38:56.807Z,7.70
2023-01-10T14:41:35.534Z,7.60
2023-01-10T14:44:11.950Z,7.60
2023-01-10T14:46:47.913Z,7.60
2023-01-10T14:49:25.142Z,7.60
2023-01-10T14:52:00.926Z,7.60
2023-01-10T14:54:30.297Z,7.50
2023-01-10T14:56:59.612Z,7.40
2023-01-10T14:59:30.689Z,7.40
2023-01-10T15:02:02.343Z,7.40
2023-01-10T15:04:33.808Z,7.40
2023-01-10T15:07:11.835Z,7.30
2023-01-10T15:09:40.209Z,7.30
2023-01-10T15:12:13.614Z,7.20
2023-01-10T15:14:42.076Z,7.10
2023-01-10T15:17:20.057Z,7.10
2023-01-10T15:19:53.146Z,7.00
2023-01-10T15:22:31.475Z,7.00
2023-01-10T15:25:02.504Z,7.00
2023-01-10T15:27:32.511Z,7.00
2023-01-10T15:30:01.810Z,6.90
2023-01-10T15:32:34.618Z,6.90
2023-01-10T15:35:04.105Z,6.80
2023-01-10T15:37:40.773Z,6.80
2023-01-10T15:40:26.496Z,6.80
2023-01-10T15:43:13.863Z,6.80
2023-01-10T15:45:42.883Z,6.80
2023-01-10T15:48:28.925Z,6.70
2023-01-10T15:51:03.495Z,6.70
2023-01-10T15:54:03.540Z,6.70
2023-01-10T15:56:37.799Z,6.60
2023-01-10T15:59:24.222Z,6.60
2023-01-10T16:01:57.903Z,6.60
2023-01-10T16:04:26.377Z,6.50
2023-01-10T16:07:07.456Z,6.50
2023-01-10T16:09:39.476Z,6.50
2023-01-10T16:12:37.154Z,6.40
2023-01-10T16:15:19.099Z,6.40
2023-01-10T16:17:49.458Z,6.40
2023-01-10T16:20:21.329Z,6.30
2023-01-10T16:22:51.015Z,6.30
2023-01-10T16:25:27.753Z,6.30
2023-01-10T16:27:56.797Z,6.20
2023-01-10T16:30:29.553Z,6.10
2023-01-10T16:32:58.479Z,6.00
2023-01-10T16:35:27.171Z,5.90
2023-01-10T16:37:58.406Z,5.90
2023-01-10T16:40:35.741Z,5.80
2023-01-10T16:43:19.150Z,5.70
2023-01-10T16:45:48.696Z,5.60
2023-01-10T16:48:21.876Z,5.50
2023-01-10T16:50:50.420Z,5.40
2023-01-10T16:53:21.594Z,5.40
2023-01-10T16:55:53.821Z,5.30
2023-01-10T16:58:22.343Z,5.20
2023-01-10T17:00:53.415Z,5.20
2023-01-10T17:03:25.363Z,5.10
2023-01-10T17:05:53.919Z,5.00
2023-01-10T17:08:24.891Z,5.00
2023-01-10T17:11:06.531Z,4.90
2023-01-10T17:13:39.947Z,4.90
2023-01-10T17:16:08.897Z,4.80
2023-01-10T17:18:39.377Z,4.80
2023-01-10T17:21:16.813Z,4.70
2023-01-10T17:23:45.006Z,4.70
2023-01-10T17:26:17.460Z,4.60
2023-01-10T17:28:46.567Z,4.50
2023-01-10T17:31:14.771Z,4.50
2023-01-10T17:33:42.882Z,4.40
2023-01-10T17:36:12.515Z,4.40
2023-01-10T17:38:42.914Z,4.30
2023-01-10T17:41:11.307Z,4.30
2023-01-10T17:43:41.353Z,4.20
2023-01-10T17:46:10.946Z,4.20
2023-01-10T17:48:40.018Z,4.10
2023-01-10T17:51:09.015Z,4.10
2023-01-10T17:53:37.376Z,4.10
2023-01-10T17:56:08.405Z,4.00
2023-01-10T17:58:36.892Z,4.00
2023-01-10T18:01:06.584Z,4.00
2023-01-10T18:03:35.507Z,4.00
2023-01-10T18:06:05.576Z,4.00
2023-01-10T18:08:33.870Z,3.90
2023-01-10T18:11:04.182Z,3.90
2023-01-10T18:13:32.458Z,3.90
2023-01-10T18:16:02.347Z,3.90
2023-01-10T18:18:32.277Z,3.90
2023-01-10T18:21:03.723Z,3.90
2023-01-10T18:23:33.169Z,3.90
2023-01-10T18:26:04.576Z,3.90
2023-01-10T18:28:42.322Z,3.90
2023-01-10T18:31:13.717Z,3.90
2023-01-10T18:33:43.501Z,3.90
2023-01-10T18:36:17.213Z,3.90
2023-01-10T18:38:45.996Z,3.90
2023-01-10T18:41:14.836Z,3.90
2023-01-10T18:43:44.419Z,3.90
2023-01-10T18:46:15.848Z,3.90
2023-01-10T18:48:45.910Z,3.80
2023-01-10T18:51:15.304Z,3.80
2023-01-10T18:53:44.443Z,3.80
2023-01-10T18:56:13.137Z,3.70
2023-01-10T18:58:42.979Z,3.70
2023-01-10T19:01:14.112Z,3.70
2023-01-10T19:03:43.258Z,3.70
2023-01-10T19:06:16.440Z,3.80
2023-01-10T19:08:45.933Z,3.80
2023-01-10T19:11:16.872Z,3.80
2023-01-10T19:13:46.635Z,3.70
2023-01-10T19:16:17.664Z,3.70
2023-01-10T19:18:50.414Z,3.70
2023-01-10T19:21:20.391Z,3.70
2023-01-10T19:23:51.192Z,3.70
2023-01-10T19:26:20.611Z,3.70
2023-01-10T19:28:48.986Z,3.70
2023-01-10T19:31:19.782Z,3.70
2023-01-10T19:33:48.226Z,3.70
2023-01-10T19:36:17.705Z,3.70
2023-01-10T19:38:48.069Z,3.60
2023-01-10T19:41:16.560Z,3.60
2023-01-10T19:43:44.748Z,3.60
2023-01-10T19:46:14.183Z,3.60
2023-01-10T19:48:42.389Z,3.50
2023-01-10T19:51:13.331Z,3.40
2023-01-10T19:53:45.474Z,3.40
2023-01-10T19:56:21.757Z,3.30
2023-01-10T19:58:50.954Z,3.30
2023-01-10T20:01:21.738Z,3.20
2023-01-10T20:03:50.226Z,3.20
2023-01-10T20:06:24.543Z,3.20
2023-01-10T20:08:54.967Z,3.20
2023-01-10T20:11:27.027Z,3.10
2023-01-10T20:13:56.197Z,3.10
2023-01-10T20:16:26.517Z,3.10
2023-01-10T20:18:54.725Z,3.10
2023-01-10T20:21:22.970Z,3.10
2023-01-10T20:23:51.299Z,3.10
2023-01-10T20:26:22.757Z,3.10
2023-01-10T20:28:52.382Z,3.10
2023-01-10T20:31:23.523Z,3.10
2023-01-10T20:33:52.241Z,3.10
2023-01-10T20:36:22.840Z,3.20
2023-01-10T20:38:52.106Z,3.20
2023-01-10T20:41:23.194Z,3.20
2023-01-10T20:43:54.042Z,3.20
2023-01-10T20:46:26.121Z,3.20
2023-01-10T20:48:56.937Z,3.30
2023-01-10T20:51:29.088Z,3.30
2023-01-10T20:53:57.474Z,3.30
2023-01-10T20:56:32.183Z,3.30
2023-01-10T20:59:02.023Z,3.30
2023-01-10T21:01:35.367Z,3.40
2023-01-10T21:04:05.460Z,3.40
2023-01-10T21:06:34.577Z,3.40
2023-01-10T21:09:03.894Z,3.40
2023-01-10T21:11:36.730Z,3.40
2023-01-10T21:14:14.085Z,3.40
2023-01-10T21:16:42.280Z,3.40
2023-01-10T21:19:13.471Z,3.50
2023-01-10T21:21:42.258Z,3.50
2023-01-10T21:24:11.426Z,3.50
2023-01-10T21:26:39.570Z,3.50
2023-01-10T21:29:07.928Z,3.50
2023-01-10T21:31:37.543Z,3.50
2023-01-10T21:34:05.679Z,3.60
2023-01-10T21:36:33.834Z,3.60
2023-01-10T21:39:01.997Z,3.60
2023-01-10T21:41:44.043Z,3.70
2023-01-10T21:44:12.342Z,3.70
2023-01-10T21:46:44.551Z,3.70
2023-01-10T21:49:13.152Z,3.70
2023-01-10T21:51:41.250Z,3.80
2023-01-10T21:54:09.466Z,3.80
2023-01-10T21:56:37.585Z,3.80
2023-01-10T21:59:05.743Z,3.80
2023-01-10T22:01:33.917Z,3.90
2023-01-10T22:04:03.872Z,3.90
2023-01-10T22:06:32.081Z,3.90
2023-01-10T22:09:00.205Z,3.90
2023-01-10T22:11:28.362Z,4.00
2023-01-10T22:13:57.140Z,4.00
2023-01-10T22:16:25.354Z,4.00
2023-01-10T22:18:53.559Z,4.00
2023-01-10T22:21:23.011Z,4.10
2023-01-10T22:23:51.091Z,4.10
2023-01-10T22:26:19.246Z,4.10
2023-01-10T22:28:47.562Z,4.10
2023-01-10T22:31:15.743Z,4.20
2023-01-10T22:33:43.881Z,4.20
2023-01-10T22:36:17.222Z,4.20
2023-01-10T22:38:49.038Z,4.30
2023-01-10T22:41:19.872Z,4.30
2023-01-10T22:43:48.933Z,4.30
2023-01-10T22:46:17.205Z,4.30
2023-01-10T22:48:45.972Z,4.40
2023-01-10T22:51:14.854Z,4.40
2023-01-10T22:53:43.501Z,4.40
2023-01-10T22:56:13.183Z,4.40
2023-01-10T22:58:47.659Z,4.50
2023-01-10T23:01:17.445Z,4.50
2023-01-10T23:03:46.595Z,4.50
2023-01-10T23:06:16.381Z,4.60
2023-01-10T23:08:45.899Z,4.60
2023-01-10T23:11:18.885Z,4.60
2023-01-10T23:13:48.135Z,4.70
2023-01-10T23:16:20.237Z,4.70
2023-01-10T23:18:49.256Z,4.70
2023-01-10T23:21:17.591Z,4.70
2023-01-10T23:23:45.685Z,4.70
2023-01-10T23:26:16.189Z,4.80
2023-01-10T23:28:48.277Z,4.80
2023-01-10T23:31:19.525Z,4.80
2023-01-10T23:33:48.592Z,4.80
2023-01-10T23:36:18.110Z,4.90
2023-01-10T23:38:46.272Z,4.90
2023-01-10T23:41:15.969Z,4.90
2023-01-10T23:43:44.248Z,4.90
2023-01-10T23:46:12.443Z,4.90
2023-01-10T23:48:40.849Z,4.90
2023-01-10T23:51:11.289Z,5.00
2023-01-10T23:53:39.544Z,5.00
2023-01-10T23:56:09.868Z,5.00
2023-01-10T23:58:40.039Z,5.00
